Time;durP1;ratioP1;P1;durP2;ratioP2;P2;SDS_P1;SDS_P2;PMS_P1;PMS_P2;Temp;Humidity;BMP_temperature;BMP_pressure;BME280_temperature;BME280_humidity;BME280_pressure;Samples;Min_cycle;Max_cycle;Signal;HPM_P1;HPM_P2
2021/12/05 00:19:34;;;;;;;1.10;1.00;;;4.70;98.00;;;;;;4993432;28;20511;-64
2021/12/05 00:22:10;;;;;;;1.30;1.03;;;4.70;98.00;;;;;;4993633;28;20470;-64
2021/12/05 00:24:43;;;;;;;1.17;1.00;;;4.70;98.00;;;;;;4993635;28;20463;-63
2021/12/05 00:27:16;;;;;;;1.10;1.00;;;4.60;98.00;;;;;;4993522;28;20551;-64
2021/12/05 00:29:52;;;;;;;1.20;1.00;;;4.50;98.00;;;;;;4993474;28;20464;-64
2021/12/05 00:32:25;;;;;;;1.20;1.00;;;4.50;98.00;;;;;;4993229;28;20495;-64
2021/12/05 00:35:32;;;;;;;1.20;1.00;;;4.60;98.00;;;;;;4993146;28;20844;-65
2021/12/05 00:41:39;;;;;;;1.20;1.10;;;4.60;98.00;;;;;;4991750;28;20456;-64
2021/12/05 00:50:10;;;;;;;1.20;1.00;;;4.80;98.00;;;;;;5149956;27;20886;-65
2021/12/05 00:55:42;;;;;;;1.17;1.00;;;4.70;98.00;;;;;;5070435;27;20514;-65
2021/12/05 01:09:33;;;;;;;1.20;1.00;;;4.90;98.00;;;;;;5114435;28;20474;-65
2021/12/05 01:15:01;;;;;;;1.20;1.00;;;4.90;98.00;;;;;;5123204;28;20443;-65
2021/12/05 01:17:34;;;;;;;1.20;1.00;;;5.00;98.00;;;;;;5128835;28;20446;-65
2021/12/05 01:20:04;;;;;;;1.20;1.00;;;5.00;98.00;;;;;;5128952;27;20455;-66
2021/12/05 01:22:37;;;;;;;1.30;1.10;;;5.00;98.00;;;;;;5129160;28;20459;-65
2021/12/05 01:25:17;;;;;;;1.20;1.00;;;5.10;98.00;;;;;;5128898;28;20947;-65
2021/12/05 01:27:52;;;;;;;1.20;1.00;;;5.10;98.00;;;;;;5129029;27;20478;-65
2021/12/05 01:30:28;;;;;;;1.20;1.00;;;5.00;98.00;;;;;;5128564;27;20454;-66
2021/12/05 01:33:04;;;;;;;1.20;0.90;;;5.10;98.00;;;;;;5128693;27;20451;-65
2021/12/05 01:35:49;;;;;;;1.30;1.10;;;5.20;98.00;;;;;;5128526;27;21011;-65
2021/12/05 01:38:28;;;;;;;1.20;1.00;;;5.00;98.00;;;;;;5128502;28;20454;-66
2021/12/05 01:41:08;;;;;;;1.20;1.00;;;4.90;98.00;;;;;;5128234;27;20512;-65
2021/12/05 01:49:51;;;;;;;1.60;1.10;;;5.00;98.00;;;;;;5122157;27;21043;-65
2021/12/05 01:58:16;;;;;;;1.20;1.00;;;5.00;98.00;;;;;;5127890;27;20459;-65
2021/12/05 02:09:28;;;;;;;1.10;1.00;;;5.20;98.00;;;;;;5093779;28;20522;-66
2021/12/05 02:31:44;;;;;;;1.20;1.00;;;5.10;98.00;;;;;;5093374;28;20471;-65
2021/12/05 02:34:20;;;;;;;1.20;0.90;;;5.10;98.00;;;;;;5093443;28;20453;-65
2021/12/05 02:37:00;;;;;;;1.17;1.00;;;5.00;98.00;;;;;;5093277;28;20496;-65
2021/12/05 02:39:40;;;;;;;1.20;1.00;;;5.00;98.00;;;;;;5093263;28;20456;-65
2021/12/05 02:42:13;;;;;;;1.20;1.00;;;5.10;98.00;;;;;;5093147;28;20456;-65
2021/12/05 02:44:41;;;;;;;1.40;1.20;;;5.00;98.00;;;;;;5093374;28;20639;-65
2021/12/05 02:47:13;;;;;;;1.20;0.93;;;5.10;98.00;;;;;;5092000;28;20548;-66
2021/12/05 02:49:43;;;;;;;1.20;1.13;;;5.00;98.00;;;;;;5093174;28;20484;-65
2021/12/05 02:52:17;;;;;;;1.17;1.00;;;5.00;98.00;;;;;;5093075;28;20990;-65
2021/12/05 02:54:49;;;;;;;1.20;1.00;;;5.00;98.00;;;;;;5093324;28;20459;-65
2021/12/05 02:57:19;;;;;;;1.20;0.93;;;5.00;98.00;;;;;;5092991;28;20453;-65
2021/12/05 02:59:51;;;;;;;1.20;1.00;;;4.90;98.00;;;;;;5092882;28;20485;-65
2021/12/05 03:02:26;;;;;;;1.20;1.00;;;4.90;98.00;;;;;;5092996;28;20457;-65
2021/12/05 03:04:55;;;;;;;1.30;1.00;;;4.80;98.00;;;;;;5093050;28;20460;-66
2021/12/05 03:07:26;;;;;;;1.20;1.00;;;4.70;98.00;;;;;;5092986;28;20559;-65
2021/12/05 03:09:53;;;;;;;1.20;1.00;;;4.70;98.00;;;;;;5092989;28;20906;-64
2021/12/05 03:12:21;;;;;;;1.20;1.00;;;4.70;98.00;;;;;;5091546;28;20459;-65
2021/12/05 03:14:51;;;;;;;1.20;1.00;;;4.70;98.00;;;;;;5092246;28;20568;-65
2021/12/05 03:17:18;;;;;;;1.10;1.00;;;4.80;98.00;;;;;;5092542;28;20830;-65
2021/12/05 03:19:46;;;;;;;1.20;1.00;;;4.90;98.00;;;;;;5092503;28;20480;-65
2021/12/05 03:22:13;;;;;;;1.17;1.00;;;4.80;98.00;;;;;;5092205;28;20496;-65
2021/12/05 03:24:44;;;;;;;1.10;0.97;;;4.90;98.00;;;;;;5092458;28;20452;-65
2021/12/05 03:27:11;;;;;;;1.20;1.00;;;4.90;98.00;;;;;;5090613;28;20958;-65
2021/12/05 03:29:38;;;;;;;1.20;1.00;;;4.90;98.00;;;;;;5092096;28;20515;-64
2021/12/05 03:32:07;;;;;;;1.20;0.93;;;4.80;98.00;;;;;;5092082;28;20524;-64
2021/12/05 03:34:34;;;;;;;1.20;1.00;;;4.90;98.00;;;;;;5092237;28;20548;-65
2021/12/05 03:37:03;;;;;;;1.20;1.00;;;4.80;98.00;;;;;;5092259;28;20509;-65
2021/12/05 03:39:31;;;;;;;1.20;1.00;;;4.80;98.00;;;;;;5090703;28;20456;-66
2021/12/05 03:41:59;;;;;;;1.20;1.00;;;4.70;98.00;;;;;;5091964;28;21026;-66
2021/12/05 03:44:31;;;;;;;1.30;1.10;;;4.70;98.00;;;;;;5092128;28;20456;-66
2021/12/05 03:46:58;;;;;;;1.10;1.00;;;4.70;98.00;;;;;;5092084;28;20459;-64
2021/12/05 03:49:29;;;;;;;1.20;1.00;;;4.80;98.00;;;;;;5091568;28;20483;-66
2021/12/05 03:51:58;;;;;;;1.20;1.00;;;4.90;98.00;;;;;;5091685;28;20795;-64
2021/12/05 03:54:25;;;;;;;1.20;1.00;;;4.90;98.00;;;;;;5090502;28;21007;-65
2021/12/05 03:56:54;;;;;;;1.20;0.90;;;4.90;98.00;;;;;;5091878;28;20483;-66
2021/12/05 03:59:27;;;;;;;1.20;1.00;;;5.00;98.00;;;;;;5091816;28;20448;-65
2021/12/05 04:01:55;;;;;;;1.20;1.00;;;5.00;98.00;;;;;;5091583;28;20483;-64
2021/12/05 04:04:23;;;;;;;1.20;1.00;;;5.00;98.00;;;;;;5091738;28;20468;-65
2021/12/05 04:06:50;;;;;;;1.20;1.00;;;5.00;98.00;;;;;;5091642;28;20456;-64
2021/12/05 04:09:19;;;;;;;1.30;1.00;;;5.10;98.00;;;;;;5091647;28;20600;-65
2021/12/05 04:11:56;;;;;;;1.20;1.00;;;5.10;98.00;;;;;;5091506;28;20506;-65
2021/12/05 04:14:28;;;;;;;1.20;0.90;;;5.10;98.00;;;;;;5091484;28;20454;-65
2021/12/05 04:16:55;;;;;;;1.20;1.00;;;5.10;98.00;;;;;;5091380;28;20456;-64
2021/12/05 04:19:23;;;;;;;1.30;1.20;;;5.10;98.00;;;;;;5091416;28;20448;-65
2021/12/05 04:21:50;;;;;;;1.20;1.00;;;5.10;98.00;;;;;;5091228;28;20453;-65
2021/12/05 04:24:21;;;;;;;1.20;1.00;;;5.00;98.00;;;;;;5091139;28;20515;-65
2021/12/05 04:26:49;;;;;;;1.20;1.00;;;4.90;98.00;;;;;;5091168;28;20480;-65
2021/12/05 04:29:19;;;;;;;2.13;1.13;;;4.90;98.00;;;;;;5091109;28;20479;-65
2021/12/05 04:31:48;;;;;;;1.10;1.00;;;4.90;98.00;;;;;;5091115;28;20487;-66
2021/12/05 04:34:15;;;;;;;1.20;0.90;;;4.90;98.00;;;;;;5091200;28;20451;-65
2021/12/05 04:36:43;;;;;;;1.30;1.10;;;4.90;98.00;;;;;;5091091;28;20492;-66
2021/12/05 04:39:11;;;;;;;1.17;1.00;;;4.90;98.00;;;;;;5091055;28;20488;-64
2021/12/05 04:41:40;;;;;;;1.20;1.00;;;4.90;98.00;;;;;;5089783;28;20509;-66
2021/12/05 04:44:07;;;;;;;1.10;0.90;;;4.90;98.00;;;;;;5091010;28;20497;-65
2021/12/05 04:46:35;;;;;;;1.20;1.00;;;5.00;98.00;;;;;;5090878;28;20501;-65
2021/12/05 04:49:06;;;;;;;1.20;1.00;;;5.00;98.00;;;;;;5090860;28;20511;-65
2021/12/05 04:51:36;;;;;;;1.20;1.00;;;5.10;98.00;;;;;;5090824;28;20987;-64
2021/12/05 04:54:04;;;;;;;1.20;1.00;;;5.10;98.00;;;;;;5090958;28;20455;-65
2021/12/05 04:56:32;;;;;;;1.20;1.00;;;5.00;98.00;;;;;;5089695;28;20819;-65
2021/12/05 04:59:00;;;;;;;1.20;1.00;;;5.00;98.00;;;;;;5091125;28;20476;-65
2021/12/05 05:01:29;;;;;;;1.10;1.00;;;5.00;98.00;;;;;;5090797;28;20463;-65
2021/12/05 05:03:56;;;;;;;1.20;1.00;;;5.00;98.00;;;;;;5089760;28;20452;-66
2021/12/05 05:06:25;;;;;;;1.20;0.90;;;5.00;98.00;;;;;;5090672;28;20561;-65
2021/12/05 05:08:54;;;;;;;1.20;1.00;;;5.00;98.00;;;;;;5090832;28;20512;-65
2021/12/05 05:11:26;;;;;;;1.20;1.00;;;5.00;98.00;;;;;;5089468;28;20516;-64
2021/12/05 05:13:53;;;;;;;1.57;1.47;;;5.00;98.00;;;;;;5090808;28;20495;-65
2021/12/05 05:16:22;;;;;;;1.20;0.90;;;4.90;98.00;;;;;;5090842;28;20517;-65
2021/12/05 05:18:52;;;;;;;1.20;1.00;;;4.90;98.00;;;;;;5090885;28;20510;-65
2021/12/05 05:21:33;;;;;;;1.20;1.07;;;4.90;98.00;;;;;;5090705;28;20452;-65
2021/12/05 05:24:43;;;;;;;1.20;0.90;;;4.90;98.00;;;;;;5089783;28;20958;-65
2021/12/05 05:27:39;;;;;;;1.20;1.00;;;4.90;98.00;;;;;;5089369;28;20505;-65
2021/12/05 05:41:54;;;;;;;1.20;1.00;;;4.80;98.00;;;;;;5094289;28;20474;-65
2021/12/05 05:44:42;;;;;;;1.17;0.90;;;4.70;98.00;;;;;;5094162;28;20964;-65
2021/12/05 05:47:14;;;;;;;1.20;1.00;;;4.70;98.00;;;;;;5093014;28;20452;-65
2021/12/05 05:49:55;;;;;;;1.13;1.00;;;4.70;98.00;;;;;;5094144;28;20512;-65
2021/12/05 05:52:22;;;;;;;1.20;1.10;;;4.60;98.00;;;;;;5094133;28;21004;-66
2021/12/05 05:54:52;;;;;;;1.17;1.00;;;4.60;98.00;;;;;;5094118;28;20871;-65
2021/12/05 05:57:24;;;;;;;1.20;1.10;;;4.60;98.00;;;;;;5093976;28;20869;-65
2021/12/05 05:59:58;;;;;;;1.20;1.00;;;4.60;98.00;;;;;;5092763;28;20827;-66
2021/12/05 06:05:10;;;;;;;1.20;1.00;;;4.70;98.00;;;;;;5093925;28;20440;-65
2021/12/05 06:07:42;;;;;;;1.20;1.00;;;4.70;98.00;;;;;;5093825;28;20512;-65
2021/12/05 06:10:11;;;;;;;1.20;0.90;;;4.70;98.00;;;;;;5093651;28;20494;-65
2021/12/05 06:12:41;;;;;;;1.20;1.00;;;4.80;98.00;;;;;;5093644;28;20993;-65
2021/12/05 06:15:12;;;;;;;1.17;0.90;;;4.80;98.00;;;;;;5093631;28;20451;-65
2021/12/05 06:17:40;;;;;;;1.10;1.00;;;4.80;98.00;;;;;;5093604;28;20943;-65
2021/12/05 06:20:09;;;;;;;1.10;1.00;;;4.80;98.00;;;;;;5093467;28;20479;-65
2021/12/05 06:22:36;;;;;;;1.20;1.10;;;4.90;98.00;;;;;;5093526;28;20824;-65
2021/12/05 06:25:04;;;;;;;1.10;1.00;;;4.80;98.00;;;;;;5093537;28;20463;-64
2021/12/05 06:27:31;;;;;;;1.20;1.00;;;4.80;98.00;;;;;;5093487;28;20950;-65
2021/12/05 06:30:08;;;;;;;1.20;0.90;;;4.70;98.00;;;;;;5093462;28;20516;-65
2021/12/05 06:38:12;;;;;;;1.20;1.00;;;4.80;98.00;;;;;;5069807;28;20517;-67
2021/12/05 06:46:17;;;;;;;1.10;0.90;;;4.90;98.00;;;;;;5066767;28;20527;-65
2021/12/05 06:48:45;;;;;;;1.10;1.00;;;4.90;98.00;;;;;;5093322;28;20607;-65
2021/12/05 06:51:16;;;;;;;1.17;0.90;;;4.80;98.00;;;;;;5093121;28;20480;-64
2021/12/05 06:53:44;;;;;;;1.20;1.00;;;4.80;98.00;;;;;;5093204;28;20491;-65
2021/12/05 06:56:11;;;;;;;1.20;1.00;;;4.70;98.00;;;;;;5092939;28;20456;-65
2021/12/05 06:58:39;;;;;;;1.20;1.00;;;4.70;98.00;;;;;;5092831;28;20453;-65
2021/12/05 07:01:08;;;;;;;1.40;1.20;;;4.60;98.00;;;;;;5092661;28;20453;-65
2021/12/05 07:03:39;;;;;;;1.20;1.00;;;4.60;98.00;;;;;;5092740;28;20569;-65
2021/12/05 07:06:09;;;;;;;1.20;0.90;;;4.70;98.00;;;;;;5092615;28;20456;-65
2021/12/05 07:08:39;;;;;;;1.20;1.10;;;4.60;98.00;;;;;;5092761;28;20448;-66
2021/12/05 07:11:16;;;;;;;1.20;1.00;;;4.60;98.00;;;;;;5092464;28;20519;-65
2021/12/05 07:16:31;;;;;;;1.30;1.00;;;4.70;98.00;;;;;;5092691;28;20530;-65
2021/12/05 07:19:19;;;;;;;1.10;0.97;;;4.70;98.00;;;;;;5092522;28;20456;-65
2021/12/05 07:21:51;;;;;;;1.20;1.00;;;4.70;98.00;;;;;;5093102;28;20456;-65
2021/12/05 07:24:32;;;;;;;1.20;1.00;;;4.70;98.00;;;;;;5093259;28;20460;-65
2021/12/05 07:40:45;;;;;;;1.20;1.10;;;4.30;98.00;;;;;;5092368;28;20447;-65
2021/12/05 07:43:16;;;;;;;1.20;1.00;;;4.30;98.00;;;;;;5092004;28;20474;-65
2021/12/05 07:45:51;;;;;;;1.20;1.00;;;4.40;98.00;;;;;;5091964;28;20464;-65
2021/12/05 07:48:22;;;;;;;1.20;1.00;;;4.40;98.00;;;;;;5091874;28;20539;-65
2021/12/05 07:50:59;;;;;;;1.10;1.00;;;4.50;98.00;;;;;;5091687;28;20900;-65
2021/12/05 07:53:31;;;;;;;1.17;1.00;;;4.60;98.00;;;;;;5091907;28;20451;-66
2021/12/05 07:56:06;;;;;;;1.20;1.00;;;4.60;98.00;;;;;;5091837;28;20448;-65
2021/12/05 08:14:57;;;;;;;1.20;1.00;;;4.40;98.00;;;;;;5091848;28;21065;-65
2021/12/05 08:17:24;;;;;;;1.10;1.00;;;4.30;98.00;;;;;;5091597;28;20936;-64
2021/12/05 08:19:52;;;;;;;1.10;1.00;;;4.30;98.00;;;;;;5091622;28;20452;-66
2021/12/05 08:22:21;;;;;;;1.20;0.90;;;4.30;98.00;;;;;;5091496;28;20458;-65
2021/12/05 08:24:51;;;;;;;1.20;0.90;;;4.30;98.00;;;;;;5091200;28;20491;-65
2021/12/05 08:27:18;;;;;;;1.20;1.00;;;4.20;98.00;;;;;;5090790;28;20452;-65
2021/12/05 08:29:49;;;;;;;1.40;1.10;;;4.30;98.00;;;;;;5091353;28;20537;-65
2021/12/05 08:32:31;;;;;;;1.33;1.20;;;4.30;98.00;;;;;;5091364;28;20456;-65
2021/12/05 08:35:10;;;;;;;1.20;1.00;;;4.20;98.00;;;;;;5091226;28;20452;-64
2021/12/05 09:25:25;;;;;;;1.20;1.00;;;4.80;98.00;;;;;;5032259;28;21023;-66
2021/12/05 09:28:11;;;;;;;1.50;1.23;;;4.90;98.00;;;;;;5076735;28;20543;-65
2021/12/05 09:39:45;;;;;;;1.20;1.00;;;5.10;98.00;;;;;;5088984;28;20503;-66
2021/12/05 10:02:08;;;;;;;1.20;1.00;;;5.20;98.00;;;;;;5102182;28;20451;-65
2021/12/05 10:07:35;;;;;;;1.20;1.10;;;5.30;98.00;;;;;;5101440;28;20431;-66
2021/12/05 10:10:14;;;;;;;1.20;1.10;;;5.30;98.00;;;;;;5109819;28;20577;-66
2021/12/05 10:13:01;;;;;;;1.20;1.00;;;5.30;98.00;;;;;;5101201;28;20466;-63
2021/12/05 10:15:40;;;;;;;1.20;1.00;;;5.30;98.00;;;;;;5103822;28;20960;-63
2021/12/05 10:35:43;;;;;;;1.20;1.00;;;5.90;98.00;;;;;;5101006;28;20458;-65
2021/12/05 10:38:14;;;;;;;1.20;1.00;;;5.90;98.00;;;;;;5101492;28;20483;-65
2021/12/05 10:40:48;;;;;;;1.20;0.97;;;6.00;98.00;;;;;;5084122;28;20452;-66
2021/12/05 10:43:18;;;;;;;1.20;1.00;;;6.10;98.00;;;;;;5092998;28;20541;-66
2021/12/05 10:45:47;;;;;;;1.20;0.97;;;6.10;98.00;;;;;;5108497;28;20455;-65
2021/12/05 10:48:23;;;;;;;1.20;1.00;;;6.20;98.00;;;;;;5101279;28;21221;-65
2021/12/05 10:50:53;;;;;;;1.20;1.00;;;6.30;98.00;;;;;;5101053;28;20663;-65
2021/12/05 10:53:33;;;;;;;1.20;0.90;;;6.40;98.00;;;;;;5100971;28;20460;-65
2021/12/05 10:56:17;;;;;;;1.20;1.00;;;6.50;98.00;;;;;;5097130;28;20541;-65
2021/12/05 10:58:49;;;;;;;2.17;1.00;;;6.60;98.00;;;;;;5098795;28;20582;-65
2021/12/05 11:01:22;;;;;;;1.23;1.10;;;6.80;98.00;;;;;;5102421;28;20525;-66
2021/12/05 11:03:53;;;;;;;1.20;1.00;;;7.00;98.00;;;;;;5099414;28;20455;-66
2021/12/05 11:06:37;;;;;;;1.20;1.00;;;7.10;98.00;;;;;;5100391;28;20529;-66
2021/12/05 11:09:07;;;;;;;1.20;1.00;;;7.20;98.00;;;;;;5109511;28;20459;-66
2021/12/05 11:11:37;;;;;;;1.20;1.00;;;7.30;98.00;;;;;;5109069;28;20522;-65
2021/12/05 11:14:08;;;;;;;1.20;1.00;;;7.40;98.00;;;;;;5100049;28;20456;-66
2021/12/05 11:16:46;;;;;;;1.20;1.00;;;7.70;98.00;;;;;;5084139;28;20490;-66
2021/12/05 11:19:29;;;;;;;1.20;1.00;;;7.90;98.00;;;;;;5108463;28;20501;-65
2021/12/05 11:22:01;;;;;;;1.20;1.00;;;8.00;98.00;;;;;;5108604;28;20462;-65
2021/12/05 11:24:31;;;;;;;1.20;1.00;;;8.20;98.00;;;;;;5104520;28;20547;-65
2021/12/05 11:27:11;;;;;;;1.20;1.00;;;8.30;98.00;;;;;;5103808;28;20494;-65
2021/12/05 11:30:00;;;;;;;1.20;1.00;;;8.20;98.00;;;;;;5103057;28;20518;-65
2021/12/05 11:32:37;;;;;;;1.20;1.00;;;8.10;98.00;;;;;;5106522;28;20474;-66
2021/12/05 11:35:27;;;;;;;1.20;0.90;;;8.10;98.00;;;;;;5090500;28;20452;-65
2021/12/05 11:38:09;;;;;;;1.20;1.00;;;8.30;98.00;;;;;;5088980;28;21226;-65
2021/12/05 11:40:51;;;;;;;1.20;1.00;;;8.30;98.00;;;;;;5099834;28;20522;-65
2021/12/05 11:43:28;;;;;;;1.20;1.00;;;8.40;98.00;;;;;;5093099;28;20451;-65
2021/12/05 11:46:03;;;;;;;1.20;1.00;;;8.40;98.00;;;;;;5088670;28;20544;-65
2021/12/05 11:48:32;;;;;;;1.20;1.00;;;8.30;98.00;;;;;;5108727;28;20492;-66
2021/12/05 11:51:01;;;;;;;1.20;1.00;;;8.00;98.00;;;;;;5105599;28;20523;-66
2021/12/05 11:53:43;;;;;;;1.30;1.07;;;7.80;98.00;;;;;;5108560;28;20945;-67
2021/12/05 11:56:16;;;;;;;1.20;1.00;;;7.70;98.00;;;;;;5083272;28;20937;-66
2021/12/05 11:58:44;;;;;;;1.20;1.00;;;7.70;98.00;;;;;;5100102;28;20505;-66
2021/12/05 12:01:14;;;;;;;1.20;1.00;;;7.60;98.00;;;;;;5098067;28;20456;-65
2021/12/05 12:03:42;;;;;;;1.20;1.00;;;7.60;98.00;;;;;;5099375;28;20490;-66
2021/12/05 12:06:09;;;;;;;1.20;1.00;;;7.50;98.00;;;;;;5092234;28;20444;-66
2021/12/05 12:08:37;;;;;;;1.20;1.00;;;7.50;98.00;;;;;;5098517;28;20467;-65
2021/12/05 12:11:05;;;;;;;1.20;1.00;;;7.60;98.00;;;;;;5107663;28;21381;-65
2021/12/05 12:13:38;;;;;;;1.20;1.00;;;7.50;98.00;;;;;;5099499;28;20495;-65
2021/12/05 12:16:08;;;;;;;1.20;1.00;;;7.50;98.00;;;;;;5107726;28;20459;-63
2021/12/05 12:18:39;;;;;;;1.20;1.00;;;7.60;98.00;;;;;;5106886;28;20538;-65
2021/12/05 12:21:12;;;;;;;1.20;1.00;;;7.60;98.00;;;;;;5098470;28;21091;-64
2021/12/05 12:23:40;;;;;;;1.20;1.00;;;7.70;98.00;;;;;;5099296;28;20452;-64
2021/12/05 12:26:11;;;;;;;1.20;0.90;;;7.70;98.00;;;;;;5099265;28;20940;-64
2021/12/05 12:28:38;;;;;;;1.20;1.00;;;7.80;98.00;;;;;;5099238;28;20468;-65
2021/12/05 12:31:08;;;;;;;1.30;1.10;;;7.80;98.00;;;;;;5104548;28;20494;-64
2021/12/05 12:33:40;;;;;;;1.20;1.00;;;7.80;98.00;;;;;;5091558;28;20672;-65
2021/12/05 12:36:07;;;;;;;1.20;1.00;;;7.60;98.00;;;;;;5090420;28;20459;-65
2021/12/05 12:38:38;;;;;;;1.20;1.00;;;7.50;98.00;;;;;;5100016;28;20960;-65
2021/12/05 12:41:14;;;;;;;1.20;1.00;;;7.60;98.00;;;;;;5095735;28;20855;-65
2021/12/05 12:43:47;;;;;;;1.20;1.00;;;7.30;98.00;;;;;;5099694;28;20456;-65
2021/12/05 12:46:24;;;;;;;1.20;1.00;;;7.30;98.00;;;;;;5093112;28;20458;-65
2021/12/05 12:48:55;;;;;;;1.20;1.00;;;7.30;98.00;;;;;;5106995;28;20461;-65
2021/12/05 12:51:31;;;;;;;1.20;1.00;;;7.20;98.00;;;;;;5071205;28;20971;-62
2021/12/05 12:54:02;;;;;;;1.20;1.00;;;7.20;98.00;;;;;;5070001;28;20491;-63
2021/12/05 12:56:31;;;;;;;1.20;1.00;;;7.30;98.00;;;;;;5090423;28;20463;-64
2021/12/05 12:59:01;;;;;;;1.20;1.00;;;7.40;98.00;;;;;;5090793;28;20493;-64
2021/12/05 13:01:41;;;;;;;1.20;1.00;;;7.50;98.00;;;;;;5109991;28;20467;-63
2021/12/05 13:04:49;;;;;;;1.20;0.97;;;7.40;98.00;;;;;;5111225;28;20460;-62
2021/12/05 13:10:10;;;;;;;1.20;1.00;;;9.60;98.00;;;;;;5108993;28;20454;-62
2021/12/05 13:12:55;;;;;;;1.20;1.00;;;10.70;98.00;;;;;;5110876;28;20486;-63
2021/12/05 13:15:32;;;;;;;1.20;1.00;;;10.20;98.00;;;;;;5111069;28;20454;-63
2021/12/05 13:18:18;;;;;;;1.20;1.00;;;10.00;98.00;;;;;;5110824;28;20532;-63
2021/12/05 13:20:52;;;;;;;1.43;1.10;;;9.50;98.00;;;;;;5109732;28;20537;-62
2021/12/05 13:23:26;;;;;;;1.20;0.90;;;9.00;98.00;;;;;;5110748;28;20822;-63
2021/12/05 13:26:06;;;;;;;1.20;1.00;;;8.80;98.00;;;;;;5109629;28;20463;-63
2021/12/05 13:28:37;;;;;;;1.20;0.90;;;8.60;98.00;;;;;;5109465;28;20519;-63
2021/12/05 13:31:38;;;;;;;1.20;1.00;;;8.30;98.00;;;;;;5109995;28;21015;-62
2021/12/05 13:34:38;;;;;;;1.20;1.00;;;8.20;98.00;;;;;;5111130;28;20475;-63
2021/12/05 13:37:27;;;;;;;1.20;1.00;;;8.00;98.00;;;;;;5102179;28;20493;-63
2021/12/05 13:40:05;;;;;;;1.33;1.10;;;7.90;98.00;;;;;;5111222;28;20461;-62
2021/12/05 13:42:42;;;;;;;1.20;0.93;;;7.90;98.00;;;;;;5111100;28;20968;-62
2021/12/05 13:45:39;;;;;;;1.20;1.00;;;7.90;98.00;;;;;;5111012;28;20450;-63
2021/12/05 13:48:13;;;;;;;1.20;1.00;;;7.90;98.00;;;;;;5110697;28;20527;-63
2021/12/05 13:50:47;;;;;;;1.20;0.90;;;8.00;98.00;;;;;;5111100;28;20455;-63
2021/12/05 13:53:46;;;;;;;1.20;1.00;;;7.90;98.00;;;;;;5110779;28;20546;-63
2021/12/05 13:56:26;;;;;;;1.30;1.03;;;7.70;98.00;;;;;;5111251;28;20461;-62
2021/12/05 13:59:07;;;;;;;1.40;1.30;;;7.60;98.00;;;;;;5114443;28;20461;-63
2021/12/05 14:01:44;;;;;;;1.80;1.20;;;7.40;98.00;;;;;;5114576;28;20451;-62
2021/12/05 14:04:25;;;;;;;1.20;1.00;;;7.40;98.00;;;;;;5114260;28;20488;-63
2021/12/05 14:06:57;;;;;;;1.20;1.00;;;7.50;98.00;;;;;;5114291;28;20510;-62
2021/12/05 14:09:31;;;;;;;1.20;1.00;;;7.40;98.00;;;;;;5114333;28;20540;-63
2021/12/05 14:12:01;;;;;;;1.20;1.00;;;7.30;98.00;;;;;;5114264;28;20480;-65
2021/12/05 14:14:34;;;;;;;1.20;0.97;;;7.20;98.00;;;;;;5114290;28;20452;-64
2021/12/05 14:17:06;;;;;;;2.00;1.37;;;7.10;98.00;;;;;;5114325;28;20461;-64
2021/12/05 14:19:35;;;;;;;1.20;1.00;;;7.10;98.00;;;;;;5113105;28;20941;-65
2021/12/05 14:22:04;;;;;;;1.20;0.90;;;7.10;98.00;;;;;;5114106;28;20458;-64
2021/12/05 14:24:36;;;;;;;1.20;1.00;;;7.10;98.00;;;;;;5114037;28;20484;-62
2021/12/05 14:27:06;;;;;;;1.20;1.00;;;7.00;98.00;;;;;;5113956;28;20550;-63
2021/12/05 14:29:39;;;;;;;2.60;1.10;;;7.00;98.00;;;;;;5114020;28;21027;-63
2021/12/05 14:32:11;;;;;;;1.20;1.00;;;7.10;98.00;;;;;;5113829;28;20555;-62
2021/12/05 14:34:39;;;;;;;1.20;1.00;;;7.10;98.00;;;;;;5114101;28;20506;-62
2021/12/05 14:37:09;;;;;;;1.20;1.00;;;7.20;98.00;;;;;;5113650;28;20490;-62
2021/12/05 14:39:38;;;;;;;1.20;1.00;;;7.20;98.00;;;;;;5113745;28;20458;-62
2021/12/05 14:42:07;;;;;;;1.20;0.93;;;7.10;98.00;;;;;;5113755;28;20942;-62
2021/12/05 14:44:36;;;;;;;1.83;1.20;;;7.10;98.00;;;;;;5113609;28;20451;-63
2021/12/05 14:47:07;;;;;;;1.20;1.00;;;7.10;98.00;;;;;;5113654;28;20459;-62
2021/12/05 14:49:38;;;;;;;1.20;0.90;;;7.10;98.00;;;;;;5113458;28;20497;-62
2021/12/05 14:52:08;;;;;;;1.20;1.10;;;7.00;98.00;;;;;;5112237;28;20507;-62
2021/12/05 14:54:38;;;;;;;1.30;1.10;;;7.00;98.00;;;;;;5113505;28;20457;-62
2021/12/05 14:57:09;;;;;;;1.50;1.10;;;6.90;98.00;;;;;;5113314;28;20511;-63
2021/12/05 14:59:36;;;;;;;1.20;1.00;;;6.90;98.00;;;;;;5113356;28;20867;-63
2021/12/05 15:02:05;;;;;;;1.20;1.00;;;6.80;98.00;;;;;;5113316;28;20520;-63
2021/12/05 15:04:37;;;;;;;1.20;1.00;;;6.80;98.00;;;;;;5113128;28;20821;-64
2021/12/05 15:07:05;;;;;;;1.20;1.00;;;6.70;98.00;;;;;;5113228;28;20455;-63
2021/12/05 15:09:35;;;;;;;1.20;1.00;;;6.70;98.00;;;;;;5112991;28;20451;-63
2021/12/05 15:12:07;;;;;;;1.20;1.00;;;6.60;98.00;;;;;;5112877;28;20892;-64
2021/12/05 15:14:36;;;;;;;1.20;0.90;;;6.50;98.00;;;;;;5112878;28;20494;-64
2021/12/05 15:17:08;;;;;;;1.50;1.00;;;6.60;98.00;;;;;;5112913;28;20504;-63
2021/12/05 15:19:39;;;;;;;1.20;1.00;;;6.80;98.00;;;;;;5112898;28;20462;-64
2021/12/05 15:22:07;;;;;;;1.50;1.00;;;7.10;98.00;;;;;;5112667;28;20543;-63
2021/12/05 15:24:35;;;;;;;1.20;1.10;;;7.20;98.00;;;;;;5112426;28;20960;-62
2021/12/05 15:27:05;;;;;;;2.20;1.23;;;7.10;98.00;;;;;;5112726;28;20530;-63
2021/12/05 15:29:32;;;;;;;1.20;1.00;;;7.00;98.00;;;;;;5112721;28;20461;-62
2021/12/05 15:31:59;;;;;;;1.20;1.00;;;6.80;98.00;;;;;;5112676;28;20780;-63
2021/12/05 15:34:30;;;;;;;1.30;1.00;;;6.60;98.00;;;;;;5112387;28;20503;-64
2021/12/05 15:37:06;;;;;;;1.20;1.00;;;6.40;98.00;;;;;;5112470;28;20453;-65
2021/12/05 15:39:34;;;;;;;1.50;1.10;;;6.20;98.00;;;;;;5111202;28;20965;-65
2021/12/05 15:42:01;;;;;;;1.20;1.00;;;6.20;98.00;;;;;;5112336;28;20494;-65
2021/12/05 15:44:36;;;;;;;1.20;1.00;;;6.10;98.00;;;;;;5112410;28;20451;-65
2021/12/05 15:47:07;;;;;;;1.20;1.00;;;6.00;98.00;;;;;;5112188;28;20486;-64
2021/12/05 15:49:57;;;;;;;1.63;1.50;;;6.10;98.00;;;;;;5111006;28;20467;-65
2021/12/05 15:52:30;;;;;;;1.33;1.10;;;6.20;98.00;;;;;;5111938;28;20950;-65
2021/12/05 15:54:57;;;;;;;1.20;1.00;;;6.20;98.00;;;;;;5112311;28;20463;-66
2021/12/05 15:57:31;;;;;;;1.20;1.10;;;6.20;98.00;;;;;;5112074;28;20564;-64
2021/12/05 16:00:07;;;;;;;1.70;1.20;;;6.20;98.00;;;;;;5112104;28;20471;-64
2021/12/05 16:02:35;;;;;;;1.90;1.57;;;6.00;98.00;;;;;;5112082;28;20884;-65
2021/12/05 16:05:02;;;;;;;1.30;1.10;;;5.90;98.00;;;;;;5112048;28;20850;-64
2021/12/05 16:07:33;;;;;;;1.20;0.90;;;5.80;98.00;;;;;;5111786;28;20458;-64
2021/12/05 16:10:19;;;;;;;1.20;1.00;;;5.70;98.00;;;;;;5111975;28;20452;-65
2021/12/05 16:12:47;;;;;;;1.20;1.00;;;5.60;98.00;;;;;;5102105;28;20518;-65
2021/12/05 16:15:21;;;;;;;1.80;1.67;;;5.60;98.00;;;;;;5112078;28;20860;-65
2021/12/05 16:18:00;;;;;;;1.43;1.33;;;5.70;98.00;;;;;;5112121;28;20859;-66
2021/12/05 16:20:36;;;;;;;1.20;1.10;;;6.00;98.00;;;;;;5111592;28;20462;-64
2021/12/05 16:23:19;;;;;;;1.20;1.00;;;6.10;98.00;;;;;;5111649;28;20454;-63
2021/12/05 16:26:11;;;;;;;1.20;1.00;;;5.90;98.00;;;;;;5111832;28;20527;-64
2021/12/05 16:28:49;;;;;;;1.43;1.10;;;5.90;98.00;;;;;;5111691;28;20451;-63
2021/12/05 16:31:24;;;;;;;2.00;1.13;;;5.80;98.00;;;;;;5111201;28;20451;-63
2021/12/05 16:33:57;;;;;;;1.20;1.00;;;5.60;98.00;;;;;;5111545;28;20450;-64
2021/12/05 16:36:34;;;;;;;1.40;1.10;;;5.40;98.00;;;;;;5111562;28;20451;-64
2021/12/05 16:39:12;;;;;;;1.53;1.50;;;5.20;98.00;;;;;;5111416;28;20457;-63
2021/12/05 16:41:58;;;;;;;1.20;1.00;;;5.10;98.00;;;;;;5111318;28;20455;-64
2021/12/05 16:44:37;;;;;;;1.20;1.00;;;5.00;98.00;;;;;;5111341;28;20492;-64
2021/12/05 16:47:10;;;;;;;1.30;1.10;;;4.90;98.00;;;;;;5111100;28;20451;-65
2021/12/05 16:49:52;;;;;;;1.20;1.10;;;4.80;98.00;;;;;;5111133;28;20479;-63
2021/12/05 16:52:32;;;;;;;1.20;1.10;;;4.80;98.00;;;;;;5111139;28;20570;-63
2021/12/05 16:55:21;;;;;;;1.30;1.10;;;4.70;98.00;;;;;;5111202;28;20455;-64
2021/12/05 16:58:09;;;;;;;1.20;1.00;;;4.70;98.00;;;;;;5111150;28;20444;-63
2021/12/05 17:00:40;;;;;;;1.60;1.20;;;4.70;98.00;;;;;;5110860;28;20455;-64
2021/12/05 17:03:09;;;;;;;1.50;1.20;;;4.80;98.00;;;;;;5110522;28;20509;-64
2021/12/05 17:05:44;;;;;;;1.20;1.00;;;4.70;98.00;;;;;;5111305;28;20455;-64
2021/12/05 17:08:18;;;;;;;1.30;1.20;;;4.60;98.00;;;;;;5105101;28;20447;-64
2021/12/05 17:10:50;;;;;;;1.20;1.00;;;4.60;98.00;;;;;;5111282;28;20490;-64
2021/12/05 17:13:29;;;;;;;1.30;1.10;;;4.60;98.00;;;;;;5110504;28;20483;-63
2021/12/05 17:16:01;;;;;;;1.20;1.10;;;4.60;98.00;;;;;;5110295;28;20463;-64
2021/12/05 17:18:41;;;;;;;1.20;1.00;;;4.60;98.00;;;;;;5111028;28;20514;-65
2021/12/05 17:21:16;;;;;;;1.20;0.90;;;4.50;98.00;;;;;;5110774;28;20450;-64
2021/12/05 17:23:50;;;;;;;1.20;0.90;;;4.50;98.00;;;;;;5110770;28;20486;-64
2021/12/05 17:26:25;;;;;;;1.20;0.90;;;4.50;98.00;;;;;;5110934;28;20462;-64
2021/12/05 17:28:59;;;;;;;1.20;1.00;;;4.40;98.00;;;;;;5110939;28;20451;-64
2021/12/05 17:31:37;;;;;;;1.20;1.00;;;4.50;98.00;;;;;;5112865;28;20458;-63
2021/12/05 17:34:11;;;;;;;1.20;1.00;;;4.50;98.00;;;;;;5114897;28;20465;-64